Otter Lake, New York
Current Conditions -  °F | °C
As of 2:53 PM on Friday 31 Oct 2014 (Local Time) from KRME Reporting Station
Clear Clear  
Wind Chill: 49°   Ceiling: Unl
Heat Index: 49°   Visibility: 10mi
Dew Point: 34°   Wind: 3mph
Humidity: 56%   Direction: 90°E
Pressure: 29.96"   Gusts: NA
Location:  43.501°N, 75.1602°W
Report Text: KRME 311853Z 09003KT 10SM CLR 09/01 A2996 RMK AO2 SLP148 T00940011
Loading
Personal Weather Stations






























Interactive Weather Map
Tropical Storm Tracking
New forecast layout! Learn more

10-Day Weather Forecast

Advertisements
Track Severe Weather on mobile